Ida — C4CZ2 — position and weather

sailwx.info

Track history (hours):
 
Tides and Currents Weather Stations Pressure Air Temp Water Temp Dewpoint Dewpoint Depression Visibility Wind Speed Wind Dir Waves Ship Positions

Ida

Last reported at 2016-May-06 18:33 UTC. Time now 2016-May-06 18:43 UTC.
Position N 53°32' E 005°22'.

Length 82 m; draft 2.9 m.

Type: Cargo ship. MMSI: 210319000.

Date/timePositionNaut miles runAvg speedWind from/ knotsBaromVisibWave heightAir tempDewpointWater temp
2016-May-06 18:33N 53°32' E 005°22'1211.7
2016-May-06 17:30N 53°28' E 005°02'3511.5
2016-May-06 14:29N 53°02' E 004°24'90 9.1
2016-May-06 04:33N 53°02' E 001°54'1010.2
2016-May-06 03:33N 53°06' E 001°39'9 9.4
2016-May-06 02:33N 53°10' E 001°24'9 8.6
2016-May-06 01:33N 53°15' E 001°12'8 8.4
2016-May-06 00:33N 53°19' E 001°01'8 7.9
2016-May-05 23:33N 53°24' E 000°50'8 8.4
2016-May-05 22:33N 53°28' E 000°38'8 8.3
2016-May-05 21:33N 53°32' E 000°25'10 9.8
2016-May-05 20:34N 53°33' E 000°09'1212.3
2016-May-05 19:33N 53°38' W 000°10'1110.7
2016-May-05 18:33N 53°42' W 000°26'8 0.2
2016-May-04 03:21N 53°43' W 000°39'6 8.0
2016-May-04 02:33N 53°42' W 000°28'9 8.7
2016-May-04 01:33N 53°42' W 000°14'1010.3
2016-May-04 00:33N 53°36' E 000°00'9 8.8
2016-May-03 23:33N 53°33' E 000°14'6 6.0
2016-May-03 22:33N 53°34' E 000°24'3 1.8
2016-May-03 21:09N 53°36' E 000°27'0 0.0
2016-May-03 20:12N 53°36' E 000°27'0 0.0
2016-May-03 16:29N 53°36' E 000°27'24 7.9
2016-May-03 13:30N 53°15' E 000°44'9 8.9
2016-May-03 12:33N 53°09' E 000°55'10 9.9
2016-May-03 11:33N 53°02' E 001°07'1110.9
2016-May-03 10:33N 52°58' E 001°24'1111.2
2016-May-03 09:33N 52°52' E 001°39'1010.1
2016-May-03 08:31N 52°45' E 001°52'9 8.9
2016-May-03 07:34N 52°37' E 001°55'8 8.2
2016-May-03 06:33N 52°29' E 001°54'7 7.5
2016-May-03 05:34N 52°21' E 001°53'7 7.4
2016-May-03 04:34N 52°14' E 001°52'8 7.6
2016-May-03 03:33N 52°06' E 001°51'8 8.3
2016-May-03 02:34N 51°58' E 001°49'9 9.3
2016-May-03 01:34N 51°49' E 001°49'10 9.9
2016-May-03 00:33N 51°39' E 001°49'1010.2
2016-May-02 23:34N 51°29' E 001°48'1111.2
2016-May-02 22:34N 51°18' E 001°43'10 9.6
2016-May-02 21:34N 51°08' E 001°42'1211.6
2016-May-02 20:33N 50°60' E 001°30'7210.0
2016-May-02 13:23N 50°20' W 000°04'  
2016-Apr-27 03:09N 44°38' W 001°50'  
Track history (hours):
 
Tides and Currents Weather Stations Pressure Air Temp Water Temp Dewpoint Dewpoint Depression Visibility Wind Speed Wind Dir Waves Ship Positions

Ida

Last reported at 2016-May-06 18:33 UTC. Time now 2016-May-06 18:43 UTC.
Position N 53°32' E 005°22'.

Length 82 m; draft 2.9 m.

Type: Cargo ship. MMSI: 210319000.

Date/timePositionNaut miles runAvg speedWind from/ knotsBaromVisibWave heightAir tempDewpointWater temp
2016-May-06 18:33N 53°32' E 005°22'1211.7
2016-May-06 17:30N 53°28' E 005°02'3511.5
2016-May-06 14:29N 53°02' E 004°24'90 9.1
2016-May-06 04:33N 53°02' E 001°54'1010.2
2016-May-06 03:33N 53°06' E 001°39'9 9.4
2016-May-06 02:33N 53°10' E 001°24'9 8.6
2016-May-06 01:33N 53°15' E 001°12'8 8.4
2016-May-06 00:33N 53°19' E 001°01'8 7.9
2016-May-05 23:33N 53°24' E 000°50'8 8.4
2016-May-05 22:33N 53°28' E 000°38'8 8.3
2016-May-05 21:33N 53°32' E 000°25'10 9.8
2016-May-05 20:34N 53°33' E 000°09'1212.3
2016-May-05 19:33N 53°38' W 000°10'1110.7
2016-May-05 18:33N 53°42' W 000°26'8 0.2
2016-May-04 03:21N 53°43' W 000°39'6 8.0
2016-May-04 02:33N 53°42' W 000°28'9 8.7
2016-May-04 01:33N 53°42' W 000°14'1010.3
2016-May-04 00:33N 53°36' E 000°00'9 8.8
2016-May-03 23:33N 53°33' E 000°14'6 6.0
2016-May-03 22:33N 53°34' E 000°24'3 1.8
2016-May-03 21:09N 53°36' E 000°27'0 0.0
2016-May-03 20:12N 53°36' E 000°27'0 0.0
2016-May-03 16:29N 53°36' E 000°27'24 7.9
2016-May-03 13:30N 53°15' E 000°44'9 8.9
2016-May-03 12:33N 53°09' E 000°55'10 9.9
2016-May-03 11:33N 53°02' E 001°07'1110.9
2016-May-03 10:33N 52°58' E 001°24'1111.2
2016-May-03 09:33N 52°52' E 001°39'1010.1
2016-May-03 08:31N 52°45' E 001°52'9 8.9
2016-May-03 07:34N 52°37' E 001°55'8 8.2
2016-May-03 06:33N 52°29' E 001°54'7 7.5
2016-May-03 05:34N 52°21' E 001°53'7 7.4
2016-May-03 04:34N 52°14' E 001°52'8 7.6
2016-May-03 03:33N 52°06' E 001°51'8 8.3
2016-May-03 02:34N 51°58' E 001°49'9 9.3
2016-May-03 01:34N 51°49' E 001°49'10 9.9
2016-May-03 00:33N 51°39' E 001°49'1010.2
2016-May-02 23:34N 51°29' E 001°48'1111.2
2016-May-02 22:34N 51°18' E 001°43'10 9.6
2016-May-02 21:34N 51°08' E 001°42'1211.6
2016-May-02 20:33N 50°60' E 001°30'7210.0
2016-May-02 13:23N 50°20' W 000°04'  
2016-Apr-27 03:09N 44°38' W 001°50'  

Dump ship's entire track history